Time;durP1;ratioP1;P1;durP2;ratioP2;P2;SDS_P1;SDS_P2;PMS_P1;PMS_P2;Temp;Humidity;BMP_temperature;BMP_pressure;BME280_temperature;BME280_humidity;BME280_pressure;Samples;Min_cycle;Max_cycle;Signal;HPM_P1;HPM_P2
2022/12/25 00:01:38;;;;;;;0.07;0.07;;;;;;;;;;5041346;28;20243;-93
2022/12/25 00:07:06;;;;;;;0.30;0.30;;;;;;;;;;5038351;28;20191;-93
2022/12/25 00:12:48;;;;;;;0.40;0.40;;;;;;;;;;5022566;28;20793;-92
2022/12/25 00:15:32;;;;;;;0.47;0.47;;;;;;;;;;5031774;28;20188;-94
2022/12/25 00:18:26;;;;;;;1.17;0.93;;;;;;;;;;5029247;28;20274;-92
2022/12/25 00:24:00;;;;;;;0.10;0.10;;;;;;;;;;5019495;28;20283;-93
2022/12/25 00:29:32;;;;;;;0.23;0.23;;;;;;;;;;5039629;28;20668;-92
2022/12/25 00:32:32;;;;;;;;;;;;;;;;;;;;;
2022/12/25 00:40:55;;;;;;;0.10;0.10;;;;;;;;;;5041458;28;20200;-94
2022/12/25 00:43:29;;;;;;;0.33;0.20;;;;;;;;;;5042693;28;20746;-93
2022/12/25 00:46:08;;;;;;;0.40;0.40;;;;;;;;;;5040950;28;20274;-93
2022/12/25 00:48:50;;;;;;;;;;;;;;;;;;;;;
2022/12/25 00:51:32;;;;;;;0.40;0.40;;;;;;;;;;5047757;28;20210;-93
2022/12/25 00:54:13;;;;;;;0.43;0.43;;;;;;;;;;5054754;28;20224;-94
2022/12/25 00:56:41;;;;;;;0.87;0.30;;;;;;;;;;5046647;28;20200;-94
2022/12/25 00:59:11;;;;;;;0.20;0.20;;;;;;;;;;5155749;22;20266;-95
2022/12/25 01:02:22;;;;;;;0.83;0.60;;;;;;;;;;5066256;28;20211;-93
2022/12/25 01:04:57;;;;;;;0.13;0.13;;;;;;;;;;5063475;28;20257;-95
2022/12/25 01:10:52;;;;;;;0.10;0.10;;;;;;;;;;5063232;28;20234;-95
2022/12/25 01:13:36;;;;;;;0.67;0.50;;;;;;;;;;5068426;28;20231;-94
2022/12/25 01:19:29;;;;;;;0.47;0.47;;;;;;;;;;5057661;28;20226;-94
2022/12/25 01:22:04;;;;;;;0.17;0.17;;;;;;;;;;5044704;28;20231;-92
2022/12/25 01:31:00;;;;;;;0.10;0.10;;;;;;;;;;5036014;28;20200;-93
2022/12/25 01:33:59;;;;;;;0.30;0.30;;;;;;;;;;5042489;28;20337;-93
2022/12/25 01:36:31;;;;;;;0.20;0.20;;;;;;;;;;5042721;28;20204;-92
2022/12/25 01:39:13;;;;;;;0.10;0.10;;;;;;;;;;5043186;28;20310;-94
2022/12/25 01:41:56;;;;;;;0.17;0.17;;;;;;;;;;5044998;28;20241;-95
2022/12/25 01:44:42;;;;;;;0.20;0.20;;;;;;;;;;5042469;28;20265;-93
2022/12/25 01:53:45;;;;;;;0.07;0.07;;;;;;;;;;5067036;28;20227;-93
2022/12/25 01:56:37;;;;;;;0.40;0.40;;;;;;;;;;5071454;28;20203;-92
2022/12/25 01:59:22;;;;;;;0.27;0.27;;;;;;;;;;5073130;28;20199;-93
2022/12/25 02:02:07;;;;;;;0.00;0.00;;;;;;;;;;5070568;28;20202;-93
2022/12/25 02:04:42;;;;;;;0.10;0.10;;;;;;;;;;5071576;28;20195;-94
2022/12/25 02:07:21;;;;;;;0.30;0.30;;;;;;;;;;5074851;28;20193;-94
2022/12/25 02:09:56;;;;;;;0.30;0.30;;;;;;;;;;5075490;28;20294;-94
2022/12/25 02:12:33;;;;;;;0.40;0.40;;;;;;;;;;5077370;28;20183;-94
2022/12/25 02:15:06;;;;;;;0.20;0.10;;;;;;;;;;5077283;28;20219;-94
2022/12/25 02:17:40;;;;;;;0.20;0.20;;;;;;;;;;5076876;28;20200;-92
2022/12/25 02:20:46;;;;;;;0.00;0.00;;;;;;;;;;5076513;28;20188;-93
2022/12/25 02:23:51;;;;;;;0.83;0.40;;;;;;;;;;5075929;28;20221;-94
2022/12/25 02:26:48;;;;;;;0.20;0.20;;;;;;;;;;5072794;28;20264;-94
2022/12/25 02:29:30;;;;;;;0.10;0.10;;;;;;;;;;5075424;28;20187;-93
2022/12/25 02:32:17;;;;;;;0.10;0.10;;;;;;;;;;5074889;28;20191;-93
2022/12/25 02:35:05;;;;;;;0.07;0.07;;;;;;;;;;5076944;28;20215;-94
2022/12/25 02:37:47;;;;;;;0.20;0.20;;;;;;;;;;5076513;28;20210;-94
2022/12/25 02:40:30;;;;;;;0.10;0.10;;;;;;;;;;5073062;28;20210;-94
2022/12/25 03:12:30;;;;;;;0.00;0.00;;;;;;;;;;5076576;28;20179;-93
2022/12/25 03:17:56;;;;;;;0.47;0.30;;;;;;;;;;5076565;28;20202;-93
2022/12/25 03:32:36;;;;;;;4.43;0.63;;;;;;;;;;5076043;28;20231;-94
2022/12/25 04:37:37;;;;;;;0.00;0.00;;;;;;;;;;5041936;28;20254;-94
2022/12/25 04:40:13;;;;;;;0.60;0.47;;;;;;;;;;5042259;28;20215;-92
2022/12/25 04:42:47;;;;;;;0.20;0.20;;;;;;;;;;5026635;28;20203;-92
2022/12/25 04:45:30;;;;;;;0.43;0.43;;;;;;;;;;5049943;28;20210;-93
2022/12/25 04:48:00;;;;;;;0.40;0.40;;;;;;;;;;5043423;28;20203;-92
2022/12/25 04:50:36;;;;;;;0.27;0.27;;;;;;;;;;5041761;28;20223;-92
2022/12/25 04:53:20;;;;;;;0.17;0.17;;;;;;;;;;5042975;28;20206;-91
2022/12/25 04:56:01;;;;;;;;;;;;;;;;;;;;;
2022/12/25 04:58:34;;;;;;;0.10;0.10;;;;;;;;;;5059811;28;20202;-92
2022/12/25 05:01:04;;;;;;;0.27;0.27;;;;;;;;;;5064773;28;20202;-92
2022/12/25 05:03:42;;;;;;;0.00;0.00;;;;;;;;;;5071824;28;20217;-92
2022/12/25 05:06:23;;;;;;;0.00;0.00;;;;;;;;;;5076632;28;20199;-93
2022/12/25 05:09:04;;;;;;;0.00;0.00;;;;;;;;;;5078159;28;20219;-93
2022/12/25 05:14:18;;;;;;;0.10;0.10;;;;;;;;;;5061789;28;20460;-93
2022/12/25 05:16:54;;;;;;;0.47;0.40;;;;;;;;;;5064223;28;20740;-93
2022/12/25 05:19:23;;;;;;;0.00;0.00;;;;;;;;;;5063927;28;20260;-92
2022/12/25 05:21:54;;;;;;;0.00;0.00;;;;;;;;;;5065186;28;20646;-91
2022/12/25 05:24:40;;;;;;;0.03;0.03;;;;;;;;;;5071002;28;20200;-92
2022/12/25 05:27:09;;;;;;;0.20;0.20;;;;;;;;;;5073276;28;20218;-93
2022/12/25 05:29:39;;;;;;;1.20;1.10;;;;;;;;;;5076568;28;20187;-93
2022/12/25 05:32:14;;;;;;;0.50;0.50;;;;;;;;;;5078125;28;20186;-92
2022/12/25 05:34:55;;;;;;;0.83;0.83;;;;;;;;;;5077494;28;20222;-92
2022/12/25 05:37:29;;;;;;;0.10;0.10;;;;;;;;;;5064529;28;20694;-93
2022/12/25 05:40:12;;;;;;;1.07;0.90;;;;;;;;;;5062670;28;20529;-93
2022/12/25 05:42:42;;;;;;;0.27;0.27;;;;;;;;;;5064535;28;20199;-93
2022/12/25 05:45:25;;;;;;;0.20;0.20;;;;;;;;;;5065890;28;20786;-93
2022/12/25 05:47:53;;;;;;;0.10;0.10;;;;;;;;;;5077374;28;20179;-91
2022/12/25 05:50:24;;;;;;;0.23;0.23;;;;;;;;;;5066165;28;20233;-94
2022/12/25 05:52:54;;;;;;;0.53;0.20;;;;;;;;;;5063352;28;20199;-93
2022/12/25 05:55:52;;;;;;;0.00;0.00;;;;;;;;;;5066321;28;20290;-93
2022/12/25 05:58:34;;;;;;;1.63;0.77;;;;;;;;;;5062778;28;20199;-93
2022/12/25 06:01:11;;;;;;;0.20;0.20;;;;;;;;;;5061514;28;20199;-94
2022/12/25 06:03:48;;;;;;;0.20;0.20;;;;;;;;;;5061223;28;20190;-94
2022/12/25 06:06:22;;;;;;;0.00;0.00;;;;;;;;;;5060256;28;20213;-92
2022/12/25 06:09:01;;;;;;;0.20;0.20;;;;;;;;;;5058831;28;20219;-94
2022/12/25 06:11:42;;;;;;;0.00;0.00;;;;;;;;;;5059410;28;20226;-92
2022/12/25 06:14:14;;;;;;;0.10;0.10;;;;;;;;;;5060234;28;20227;-92
2022/12/25 06:19:31;;;;;;;0.10;0.10;;;;;;;;;;5064587;28;20183;-92
2022/12/25 06:22:07;;;;;;;0.00;0.00;;;;;;;;;;5061379;28;20200;-94
2022/12/25 06:24:47;;;;;;;0.10;0.10;;;;;;;;;;5059680;28;20584;-92
2022/12/25 06:27:30;;;;;;;1.07;0.73;;;;;;;;;;5060200;28;20269;-93
2022/12/25 06:35:43;;;;;;;0.07;0.07;;;;;;;;;;5224022;22;20224;-94
2022/12/25 06:38:19;;;;;;;2.10;1.50;;;;;;;;;;5191481;22;20239;-93
2022/12/25 06:40:48;;;;;;;0.50;0.10;;;;;;;;;;5075295;28;20175;-94
2022/12/25 06:46:24;;;;;;;0.20;0.20;;;;;;;;;;5263689;22;20238;-93
2022/12/25 06:48:59;;;;;;;0.07;0.07;;;;;;;;;;5114984;22;20239;-93
2022/12/25 06:51:32;;;;;;;0.00;0.00;;;;;;;;;;5066312;28;20199;-92
2022/12/25 06:54:23;;;;;;;0.00;0.00;;;;;;;;;;5062573;28;20294;-93
2022/12/25 06:57:08;;;;;;;0.30;0.20;;;;;;;;;;5067696;28;20192;-92
2022/12/25 06:59:51;;;;;;;0.20;0.20;;;;;;;;;;5069169;28;20192;-92
2022/12/25 07:02:31;;;;;;;0.00;0.00;;;;;;;;;;5071060;28;20215;-93
2022/12/25 07:05:07;;;;;;;0.10;0.10;;;;;;;;;;5075633;28;20186;-93
2022/12/25 07:07:47;;;;;;;0.00;0.00;;;;;;;;;;5075255;28;20190;-94
2022/12/25 07:10:30;;;;;;;0.27;0.27;;;;;;;;;;5063135;28;20318;-94
2022/12/25 07:13:09;;;;;;;0.50;0.50;;;;;;;;;;5061260;28;20283;-92
2022/12/25 07:22:14;;;;;;;0.40;0.40;;;;;;;;;;5040551;28;20292;-94
2022/12/25 07:24:56;;;;;;;0.43;0.43;;;;;;;;;;5059361;28;20212;-94
2022/12/25 07:39:08;;;;;;;0.15;0.15;;;;;;;;;;5067260;28;20703;-96
2022/12/25 07:42:14;;;;;;;0.20;0.20;;;;;;;;;;5074828;28;20183;-93
2022/12/25 08:14:34;;;;;;;1.38;1.27;;;;;;;;;;4981721;28;20203;-95
2022/12/25 08:26:44;;;;;;;1.85;0.95;;;;;;;;;;5026945;28;20230;-95
2022/12/25 08:29:59;;;;;;;0.85;0.60;;;;;;;;;;5035921;28;20184;-94
2022/12/25 09:02:04;;;;;;;2.17;1.00;;;;;;;;;;4999819;28;20221;-95
2022/12/25 09:16:52;;;;;;;0.05;0.05;;;;;;;;;;5019365;28;20730;-95
2022/12/25 09:19:40;;;;;;;0.28;0.28;;;;;;;;;;5022273;28;20242;-93
2022/12/25 09:28:20;;;;;;;0.10;0.10;;;;;;;;;;5019601;28;20247;-95
2022/12/25 09:37:10;;;;;;;0.38;0.38;;;;;;;;;;5032149;28;20231;-92
2022/12/25 09:42:59;;;;;;;0.10;0.10;;;;;;;;;;4960640;28;20255;-95
2022/12/25 09:48:30;;;;;;;0.00;0.00;;;;;;;;;;5022566;28;20223;-95
2022/12/25 09:54:17;;;;;;;0.10;0.00;;;;;;;;;;5010319;28;20238;-96
2022/12/25 09:56:59;;;;;;;0.00;0.00;;;;;;;;;;5022974;28;20323;-95
2022/12/25 10:00:02;;;;;;;0.03;0.03;;;;;;;;;;5023072;28;20231;-95
2022/12/25 10:02:55;;;;;;;0.22;0.22;;;;;;;;;;5024168;28;20206;-95
2022/12/25 10:06:02;;;;;;;;;;;;;;;;;;;;;
2022/12/25 10:08:51;;;;;;;0.00;0.00;;;;;;;;;;5023636;28;20205;-95
2022/12/25 10:20:19;;;;;;;0.38;0.38;;;;;;;;;;5020396;28;20456;-96
2022/12/25 10:22:54;;;;;;;0.00;0.00;;;;;;;;;;5022445;28;20623;-94
2022/12/25 10:25:33;;;;;;;0.00;0.00;;;;;;;;;;5021716;28;20217;-94
2022/12/25 10:31:31;;;;;;;;;;;;;;;;;;;;;
2022/12/25 10:37:01;;;;;;;0.28;0.28;;;;;;;;;;5023890;28;20229;-95
2022/12/25 10:39:40;;;;;;;0.00;0.00;;;;;;;;;;5022295;28;20214;-96
2022/12/25 10:42:30;;;;;;;0.65;0.20;;;;;;;;;;5029611;28;20189;-94
2022/12/25 10:45:18;;;;;;;;;;;;;;;;;;;;;
2022/12/25 10:51:13;;;;;;;0.00;0.00;;;;;;;;;;5014125;28;20199;-94
2022/12/25 10:56:33;;;;;;;0.20;0.20;;;;;;;;;;5019838;28;20293;-89
2022/12/25 10:59:07;;;;;;;0.10;0.10;;;;;;;;;;5016658;28;20222;-91
2022/12/25 11:01:38;;;;;;;0.75;0.55;;;;;;;;;;5016583;28;20638;-93
2022/12/25 11:04:18;;;;;;;1.73;0.82;;;;;;;;;;5015597;28;20202;-90
2022/12/25 11:06:57;;;;;;;0.10;0.10;;;;;;;;;;4995768;28;20287;-91
2022/12/25 11:09:30;;;;;;;0.28;0.28;;;;;;;;;;5014538;28;20219;-91
2022/12/25 11:11:57;;;;;;;1.02;0.20;;;;;;;;;;5017021;28;20232;-90
2022/12/25 11:14:26;;;;;;;0.00;0.00;;;;;;;;;;5015498;28;20272;-91
2022/12/25 11:16:57;;;;;;;0.00;0.00;;;;;;;;;;5002145;28;20243;-91
2022/12/25 11:19:27;;;;;;;0.00;0.00;;;;;;;;;;4996599;28;20638;-90
2022/12/25 11:22:05;;;;;;;0.10;0.10;;;;;;;;;;4995688;28;20695;-90
2022/12/25 11:24:35;;;;;;;0.10;0.10;;;;;;;;;;4998109;28;20199;-91
2022/12/25 11:27:21;;;;;;;0.00;0.00;;;;;;;;;;4997218;28;20233;-89
2022/12/25 11:29:54;;;;;;;0.00;0.00;;;;;;;;;;5004077;28;20233;-94
2022/12/25 11:32:33;;;;;;;0.00;0.00;;;;;;;;;;5009182;28;20190;-93
2022/12/25 11:35:13;;;;;;;0.00;0.00;;;;;;;;;;5013782;28;20206;-94
2022/12/25 11:37:57;;;;;;;0.10;0.10;;;;;;;;;;5016149;28;20187;-95
2022/12/25 11:40:35;;;;;;;0.28;0.28;;;;;;;;;;5010106;28;20683;-92
2022/12/25 11:43:32;;;;;;;0.00;0.00;;;;;;;;;;5004114;28;20719;-94
2022/12/25 11:46:29;;;;;;;0.10;0.10;;;;;;;;;;5005291;28;20262;-95
2022/12/25 11:49:00;;;;;;;0.00;0.00;;;;;;;;;;5006308;28;20210;-93
2022/12/25 11:54:46;;;;;;;0.30;0.30;;;;;;;;;;4999482;28;20302;-93
2022/12/25 11:57:29;;;;;;;0.00;0.00;;;;;;;;;;5015629;28;20276;-93
2022/12/25 12:00:25;;;;;;;0.00;0.00;;;;;;;;;;5015694;28;20191;-94
2022/12/25 12:03:08;;;;;;;0.10;0.10;;;;;;;;;;5016221;28;20267;-92
2022/12/25 12:05:48;;;;;;;0.10;0.10;;;;;;;;;;5008869;28;20228;-93
2022/12/25 12:08:22;;;;;;;0.30;0.30;;;;;;;;;;5001487;28;20219;-94
2022/12/25 12:11:14;;;;;;;0.00;0.00;;;;;;;;;;5000153;28;20201;-95
2022/12/25 12:14:03;;;;;;;0.17;0.17;;;;;;;;;;5000413;28;20228;-93
2022/12/25 12:16:40;;;;;;;0.17;0.17;;;;;;;;;;4999162;28;20300;-93
2022/12/25 12:19:25;;;;;;;0.07;0.07;;;;;;;;;;5000177;28;20215;-94
2022/12/25 12:22:08;;;;;;;1.00;0.57;;;;;;;;;;5002384;28;20198;-94
2022/12/25 12:24:54;;;;;;;0.27;0.27;;;;;;;;;;5002306;28;20212;-95
2022/12/25 12:27:38;;;;;;;0.30;0.30;;;;;;;;;;5005535;28;20191;-95
2022/12/25 12:30:33;;;;;;;0.10;0.10;;;;;;;;;;5015832;28;20212;-92
2022/12/25 12:33:24;;;;;;;0.20;0.20;;;;;;;;;;5005572;28;20207;-92
2022/12/25 12:36:01;;;;;;;0.30;0.30;;;;;;;;;;5002099;28;20236;-95
2022/12/25 12:38:42;;;;;;;0.00;0.00;;;;;;;;;;5000291;28;20232;-94
2022/12/25 12:41:24;;;;;;;;;;;;;;;;;;;;;
2022/12/25 12:44:13;;;;;;;1.07;0.40;;;;;;;;;;5011465;28;20232;-93
2022/12/25 12:47:01;;;;;;;0.20;0.20;;;;;;;;;;5014259;28;20205;-90
2022/12/25 12:49:51;;;;;;;0.33;0.10;;;;;;;;;;5015636;28;20231;-94
2022/12/25 12:52:41;;;;;;;0.00;0.00;;;;;;;;;;5005185;28;20580;-95
2022/12/25 12:55:20;;;;;;;0.57;0.57;;;;;;;;;;5003903;28;20200;-93
2022/12/25 12:58:10;;;;;;;0.10;0.10;;;;;;;;;;5005291;28;20233;-95
2022/12/25 13:00:51;;;;;;;0.00;0.00;;;;;;;;;;5007338;28;20287;-94
2022/12/25 13:03:37;;;;;;;0.20;0.20;;;;;;;;;;5011928;28;20225;-93
2022/12/25 13:06:13;;;;;;;0.03;0.03;;;;;;;;;;5000245;28;20203;-94
2022/12/25 13:12:17;;;;;;;0.10;0.10;;;;;;;;;;5010021;28;20303;-93
2022/12/25 13:14:58;;;;;;;0.17;0.17;;;;;;;;;;4997140;28;20206;-94
2022/12/25 13:17:37;;;;;;;0.10;0.10;;;;;;;;;;5026077;28;20233;-94
2022/12/25 13:20:36;;;;;;;0.40;0.10;;;;;;;;;;5027656;28;20211;-91
2022/12/25 13:26:40;;;;;;;0.00;0.00;;;;;;;;;;5024445;28;20271;-95
2022/12/25 13:29:39;;;;;;;0.20;0.20;;;;;;;;;;5023890;28;20671;-94
2022/12/25 13:32:35;;;;;;;0.10;0.10;;;;;;;;;;5024935;28;20191;-94
2022/12/25 13:35:21;;;;;;;0.10;0.10;;;;;;;;;;5028564;28;20211;-95
2022/12/25 13:38:04;;;;;;;0.20;0.20;;;;;;;;;;5022895;28;20229;-96
2022/12/25 13:42:04;;;;;;;0.17;0.10;;;;;;;;;;5024038;28;20219;-94
2022/12/25 13:43:34;;;;;;;0.00;0.00;;;;;;;;;;5023848;28;20199;-94
2022/12/25 13:46:18;;;;;;;0.30;0.30;;;;;;;;;;5022653;28;20222;-94
2022/12/25 13:54:40;;;;;;;1.23;0.60;;;;;;;;;;4997221;28;20249;-95
2022/12/25 14:00:12;;;;;;;0.03;0.03;;;;;;;;;;5013904;28;20198;-95
2022/12/25 14:03:07;;;;;;;1.07;0.70;;;;;;;;;;5024453;28;20244;-93
2022/12/25 14:06:02;;;;;;;2.27;0.73;;;;;;;;;;4971590;28;20212;-96
2022/12/25 14:31:17;;;;;;;0.60;0.60;;;;;;;;;;5021242;28;20350;-96
2022/12/25 14:34:04;;;;;;;0.43;0.43;;;;;;;;;;5024095;28;20193;-93
2022/12/25 14:36:49;;;;;;;0.37;0.37;;;;;;;;;;5024005;28;20235;-96
2022/12/25 14:54:40;;;;;;;1.13;1.13;;;;;;;;;;5005928;28;20251;-95
2022/12/25 15:01:00;;;;;;;3.03;2.73;;;;;;;;;;5166200;22;20257;-93
2022/12/25 15:09:19;;;;;;;1.10;0.70;;;;;;;;;;5031092;28;20246;-95
2022/12/25 15:17:38;;;;;;;1.13;1.03;;;;;;;;;;5127626;22;20284;-94
2022/12/25 15:23:11;;;;;;;1.00;1.00;;;;;;;;;;5013612;28;20173;-94
2022/12/25 15:28:50;;;;;;;1.33;1.33;;;;;;;;;;5024972;28;20223;-95
2022/12/25 15:31:26;;;;;;;0.63;0.63;;;;;;;;;;5026242;28;20203;-93
2022/12/25 15:34:15;;;;;;;3.57;1.50;;;;;;;;;;5026475;28;20294;-92
2022/12/25 15:36:54;;;;;;;4.93;2.90;;;;;;;;;;5027210;28;20280;-92
2022/12/25 15:39:45;;;;;;;2.83;2.00;;;;;;;;;;5033759;28;20211;-93
2022/12/25 15:42:22;;;;;;;5.17;1.50;;;;;;;;;;5018977;28;20537;-94
2022/12/25 16:01:36;;;;;;;0.50;0.50;;;;;;;;;;5035895;28;20196;-93
2022/12/25 16:04:14;;;;;;;0.30;0.30;;;;;;;;;;5048735;22;20237;-93
2022/12/25 16:07:02;;;;;;;2.93;0.87;;;;;;;;;;5143836;22;20492;-94
2022/12/25 16:20:01;;;;;;;1.03;0.63;;;;;;;;;;5219448;22;20227;-93
2022/12/25 16:28:11;;;;;;;2.40;1.97;;;;;;;;;;6000930;22;20500;-92
2022/12/25 16:36:29;;;;;;;1.20;1.10;;;;;;;;;;5053823;22;20233;-94
2022/12/25 16:42:39;;;;;;;2.80;1.63;;;;;;;;;;5079272;22;20228;-93
2022/12/25 16:50:52;;;;;;;9.40;1.27;;;;;;;;;;5231759;22;20316;31
2022/12/25 16:53:34;;;;;;;0.87;0.80;;;;;;;;;;5217181;22;20213;-94
2022/12/25 17:12:24;;;;;;;0.80;0.80;;;;;;;;;;5027258;28;20255;-95
2022/12/25 17:20:56;;;;;;;1.60;1.03;;;;;;;;;;5032479;28;20213;-93
2022/12/25 17:26:42;;;;;;;0.40;0.40;;;;;;;;;;5239509;22;20235;-93
2022/12/25 17:32:08;;;;;;;0.83;0.83;;;;;;;;;;4962679;29;20210;-94
2022/12/25 17:34:48;;;;;;;0.57;0.40;;;;;;;;;;4963667;29;20205;-94
2022/12/25 17:37:24;;;;;;;0.30;0.30;;;;;;;;;;5023604;28;20290;-93
2022/12/25 17:40:28;;;;;;;;;;;;;;;;;;;;;
2022/12/25 17:43:12;;;;;;;0.83;0.70;;;;;;;;;;5027310;28;20196;-93
2022/12/25 17:46:03;;;;;;;;;;;;;;;;;;;;;
2022/12/25 17:51:29;;;;;;;0.60;0.60;;;;;;;;;;5022765;28;20201;-93
2022/12/25 17:54:03;;;;;;;5.70;2.63;;;;;;;;;;5024621;28;20554;-95
2022/12/25 17:56:41;;;;;;;18.87;2.70;;;;;;;;;;5025043;28;20566;-93
2022/12/25 17:59:32;;;;;;;11.27;1.60;;;;;;;;;;5241474;22;20244;-93
2022/12/25 18:02:02;;;;;;;4.27;1.27;;;;;;;;;;5037183;28;20193;-93
2022/12/25 18:04:47;;;;;;;0.80;0.80;;;;;;;;;;5038158;28;20184;-95
2022/12/25 18:12:57;;;;;;;0.70;0.70;;;;;;;;;;5205199;22;20229;-94
2022/12/25 18:26:38;;;;;;;0.67;0.67;;;;;;;;;;5317036;22;20232;-95
2022/12/25 18:32:20;;;;;;;1.17;0.90;;;;;;;;;;5014931;28;20241;-95
2022/12/25 18:35:09;;;;;;;2.97;0.97;;;;;;;;;;5030797;28;20209;-94
2022/12/25 18:37:47;;;;;;;1.37;1.27;;;;;;;;;;5026771;28;20702;-94
2022/12/25 18:40:32;;;;;;;;;;;;;;;;;;;;;
2022/12/25 18:57:38;;;;;;;3.00;1.43;;;;;;;;;;5076337;22;20232;-94
2022/12/25 19:00:21;;;;;;;2.57;1.40;;;;;;;;;;5017835;28;20193;-95
2022/12/25 19:06:02;;;;;;;17.67;3.03;;;;;;;;;;4978815;22;20209;-94
2022/12/25 19:08:36;;;;;;;3.63;3.40;;;;;;;;;;5029423;28;20200;-93
2022/12/25 19:11:28;;;;;;;2.93;2.03;;;;;;;;;;5031006;28;20177;-93
2022/12/25 19:14:19;;;;;;;3.53;1.43;;;;;;;;;;5036781;28;20211;-95
2022/12/25 19:17:13;;;;;;;0.87;0.70;;;;;;;;;;5029253;28;20193;-94
2022/12/25 19:19:43;;;;;;;4.90;1.07;;;;;;;;;;5028663;28;20204;-92
2022/12/25 19:22:16;;;;;;;1.63;1.53;;;;;;;;;;5031480;28;20211;-92
2022/12/25 19:24:52;;;;;;;2.40;0.83;;;;;;;;;;5060913;22;20273;-92
2022/12/25 19:30:21;;;;;;;1.50;1.40;;;;;;;;;;5287205;22;20247;-93
2022/12/25 19:32:54;;;;;;;2.07;1.97;;;;;;;;;;5033525;28;20196;-94
2022/12/25 19:56:32;;;;;;;2.87;2.20;;;;;;;;;;5035299;28;20232;-93
2022/12/25 19:59:09;;;;;;;1.93;1.70;;;;;;;;;;5036882;28;20259;-93
2022/12/25 20:01:42;;;;;;;2.03;1.93;;;;;;;;;;5034953;28;20196;-93
2022/12/25 20:04:25;;;;;;;9.30;4.00;;;;;;;;;;5034725;28;20238;-93
2022/12/25 20:07:21;;;;;;;5.80;3.10;;;;;;;;;;5033606;28;20207;-92
2022/12/25 20:10:01;;;;;;;6.33;2.00;;;;;;;;;;5030929;28;20236;-92
2022/12/25 20:13:00;;;;;;;8.57;4.33;;;;;;;;;;5217273;22;20228;-93
2022/12/25 20:16:09;;;;;;;4.70;2.37;;;;;;;;;;5275596;22;20255;-94
2022/12/25 20:18:58;;;;;;;4.80;2.77;;;;;;;;;;5269492;22;21364;31
2022/12/25 20:24:44;;;;;;;7.00;2.40;;;;;;;;;;5078751;23;20232;-94
2022/12/25 20:36:05;;;;;;;2.53;1.10;;;;;;;;;;5087658;22;20223;-96
2022/12/25 20:38:37;;;;;;;0.60;0.60;;;;;;;;;;5072666;23;20233;-95
2022/12/25 20:44:00;;;;;;;7.37;1.93;;;;;;;;;;5120438;23;20238;-94
2022/12/25 20:46:35;;;;;;;7.00;2.43;;;;;;;;;;5016118;28;20204;-94
2022/12/25 21:10:05;;;;;;;0.63;0.63;;;;;;;;;;4963203;28;20231;-94
2022/12/25 21:21:42;;;;;;;0.83;0.80;;;;;;;;;;5071725;23;20232;-93
2022/12/25 21:27:36;;;;;;;0.50;0.50;;;;;;;;;;4572677;27;15376199;-93
2022/12/25 21:38:58;;;;;;;0.50;0.50;;;;;;;;;;5031550;28;20204;-93
2022/12/25 21:41:42;;;;;;;0.97;0.90;;;;;;;;;;5027765;28;20222;-93
2022/12/25 21:44:22;;;;;;;1.23;1.07;;;;;;;;;;5021427;28;20200;-93
2022/12/25 21:47:01;;;;;;;1.53;1.00;;;;;;;;;;5027517;28;20228;-94
2022/12/25 21:55:33;;;;;;;2.93;0.97;;;;;;;;;;5026272;28;20239;-95
2022/12/25 22:01:15;;;;;;;0.43;0.43;;;;;;;;;;4963702;29;20190;-96
2022/12/25 22:04:13;;;;;;;1.33;1.23;;;;;;;;;;4963574;29;20199;-93
2022/12/25 22:09:54;;;;;;;0.47;0.47;;;;;;;;;;4964363;28;20214;-95
2022/12/25 22:15:21;;;;;;;0.57;0.57;;;;;;;;;;4959030;29;20251;-94
2022/12/25 22:20:56;;;;;;;0.53;0.53;;;;;;;;;;4972000;28;21050;-94
2022/12/25 22:23:51;;;;;;;;;;;;;;;;;;;;;
2022/12/25 22:36:35;;;;;;;;;;;;;;;;;;;;;
2022/12/25 23:02:38;;;;;;;0.77;0.77;;;;;;;;;;4936608;28;20210;-95
2022/12/25 23:08:06;;;;;;;9.20;1.63;;;;;;;;;;4980632;28;20206;-95
2022/12/25 23:10:51;;;;;;;5.93;1.53;;;;;;;;;;4962644;28;20598;-94
2022/12/25 23:16:37;;;;;;;0.43;0.43;;;;;;;;;;4943589;29;20241;-95
2022/12/25 23:31:09;;;;;;;0.23;0.23;;;;;;;;;;4974924;23;20245;-94
2022/12/25 23:36:53;;;;;;;0.30;0.30;;;;;;;;;;4985611;28;20198;-94
2022/12/25 23:39:55;;;;;;;0.57;0.57;;;;;;;;;;4988999;28;20574;-92
2022/12/25 23:45:33;;;;;;;;;;;;;;;;;;;;;
2022/12/25 23:48:12;;;;;;;5.57;2.70;;;;;;;;;;4981431;28;20205;-95
2022/12/25 23:50:55;;;;;;;0.60;0.60;;;;;;;;;;4979064;28;20671;-95
2022/12/25 23:53:38;;;;;;;1.83;1.60;;;;;;;;;;4981286;28;20205;-93
2022/12/25 23:56:21;;;;;;;1.23;1.13;;;;;;;;;;4980745;28;20209;-94
